createdAt,value
2023-12-28T00:02:19.356Z,98340.84
2023-12-28T00:04:46.262Z,98349.47
2023-12-28T00:07:14.607Z,98361.50
2023-12-28T00:09:41.364Z,98366.00
2023-12-28T00:12:08.244Z,98368.00
2023-12-28T00:14:35.217Z,98358.19
2023-12-28T00:17:01.911Z,98355.53
2023-12-28T00:19:28.695Z,98365.81
2023-12-28T00:21:55.659Z,98359.78
2023-12-28T00:24:22.876Z,98374.59
2023-12-28T00:26:49.956Z,98373.41
2023-12-28T00:29:16.736Z,98390.84
2023-12-28T00:31:43.556Z,98386.25
2023-12-28T00:34:10.677Z,98388.47
2023-12-28T00:36:39.188Z,98409.72
2023-12-28T00:39:05.930Z,98410.56
2023-12-28T00:41:32.833Z,98410.09
2023-12-28T00:43:59.569Z,98411.09
2023-12-28T00:46:26.900Z,98406.59
2023-12-28T00:48:53.766Z,98388.72
2023-12-28T00:51:22.575Z,98394.50
2023-12-28T00:53:49.463Z,98381.78
2023-12-28T00:56:16.249Z,98395.53
2023-12-28T00:58:44.931Z,98382.94
2023-12-28T01:04:19.107Z,98374.53
2023-12-28T01:06:45.958Z,98360.25
2023-12-28T01:09:12.742Z,98368.59
2023-12-28T01:11:39.755Z,98377.13
2023-12-28T01:14:06.492Z,98368.75
2023-12-28T01:16:33.535Z,98372.88
2023-12-28T01:19:00.526Z,98357.13
2023-12-28T01:21:27.733Z,98392.31
2023-12-28T01:23:55.876Z,98389.19
2023-12-28T01:26:22.702Z,98362.81
2023-12-28T01:28:49.462Z,98363.44
2023-12-28T01:31:16.199Z,98356.69
2023-12-28T01:33:43.202Z,98358.13
2023-12-28T01:36:21.246Z,98371.50
2023-12-28T01:38:48.807Z,98369.75
2023-12-28T01:41:16.624Z,98360.72
2023-12-28T01:43:43.921Z,98375.06
2023-12-28T01:46:17.895Z,98360.25
2023-12-28T01:48:49.536Z,98374.97
2023-12-28T01:51:16.960Z,98365.56
2023-12-28T01:53:48.881Z,98317.34
2023-12-28T01:56:16.694Z,98282.81
2023-12-28T01:58:45.649Z,98346.97
2023-12-28T02:01:13.024Z,98315.59
2023-12-28T02:03:40.856Z,98342.09
2023-12-28T02:06:12.089Z,98347.78
2023-12-28T02:08:39.102Z,98324.78
2023-12-28T02:11:06.496Z,98340.25
2023-12-28T02:13:33.322Z,98344.22
2023-12-28T02:16:19.156Z,98324.59
2023-12-28T02:18:50.860Z,98327.25
2023-12-28T02:21:18.730Z,98354.00
2023-12-28T02:23:50.032Z,98345.22
2023-12-28T02:26:20.603Z,98334.50
2023-12-28T02:28:47.899Z,98334.03
2023-12-28T02:31:22.995Z,98330.56
2023-12-28T02:33:55.483Z,98338.06
2023-12-28T02:36:25.804Z,98286.94
2023-12-28T02:38:53.952Z,98337.25
2023-12-28T02:41:20.936Z,98319.94
2023-12-28T02:43:50.197Z,98318.25
2023-12-28T02:46:17.046Z,98319.47
2023-12-28T02:48:44.266Z,98322.66
2023-12-28T02:51:11.470Z,98318.00
2023-12-28T02:53:38.863Z,98326.41
2023-12-28T02:56:06.149Z,98303.97
2023-12-28T02:58:32.941Z,98288.50
2023-12-28T03:01:00.373Z,98320.53
2023-12-28T03:03:27.329Z,98290.22
2023-12-28T03:05:54.680Z,98310.13
2023-12-28T03:08:22.562Z,98291.03
2023-12-28T03:10:50.110Z,98296.81
2023-12-28T03:13:17.604Z,98320.38
2023-12-28T03:15:44.306Z,98290.31
2023-12-28T03:18:11.289Z,98315.94
2023-12-28T03:20:38.752Z,98309.66
2023-12-28T03:23:05.824Z,98308.72
2023-12-28T03:25:32.625Z,98306.53
2023-12-28T03:28:00.453Z,98304.88
2023-12-28T03:30:27.583Z,98299.38
2023-12-28T03:32:54.348Z,98306.03
2023-12-28T03:35:21.643Z,98286.78
2023-12-28T03:37:48.512Z,98322.59
2023-12-28T03:40:17.073Z,98326.25
2023-12-28T03:42:45.830Z,98307.41
2023-12-28T03:45:13.051Z,98290.56
2023-12-28T03:47:40.030Z,98279.34
2023-12-28T03:50:08.162Z,98267.00
2023-12-28T03:52:34.978Z,98286.66
2023-12-28T03:55:02.045Z,98295.81
2023-12-28T03:57:30.720Z,98297.72
2023-12-28T03:59:58.069Z,98283.25
2023-12-28T04:02:25.951Z,98291.34
2023-12-28T04:04:53.792Z,98278.97
2023-12-28T04:07:20.684Z,98274.19
2023-12-28T04:09:47.798Z,98301.75
2023-12-28T04:12:14.799Z,98283.47
2023-12-28T04:14:41.600Z,98317.84
2023-12-28T04:17:08.381Z,98305.66
2023-12-28T04:19:35.439Z,98318.03
2023-12-28T04:22:02.231Z,98306.03
2023-12-28T04:24:29.049Z,98300.41
2023-12-28T04:26:58.381Z,98294.94
2023-12-28T04:29:25.696Z,98291.84
2023-12-28T04:31:52.466Z,98279.69
2023-12-28T04:34:19.962Z,98285.81
2023-12-28T04:36:47.964Z,98291.84
2023-12-28T04:39:14.898Z,98255.75
2023-12-28T04:41:41.939Z,98301.28
2023-12-28T04:44:08.838Z,98292.88
2023-12-28T04:46:41.501Z,98293.06
2023-12-28T04:49:08.805Z,98299.31
2023-12-28T04:51:35.678Z,98246.50
2023-12-28T04:54:02.477Z,98286.28
2023-12-28T04:56:29.511Z,98249.97
2023-12-28T04:58:56.425Z,98292.59
2023-12-28T05:01:23.978Z,98269.13
2023-12-28T05:03:51.026Z,98295.53
2023-12-28T05:06:17.838Z,98293.69
2023-12-28T05:08:44.650Z,98283.34
2023-12-28T05:11:11.799Z,98294.50
2023-12-28T05:13:38.614Z,98298.16
2023-12-28T05:16:05.868Z,98289.94
2023-12-28T05:18:32.835Z,98268.13
2023-12-28T05:21:00.002Z,98272.41
2023-12-28T05:23:26.806Z,98277.66
2023-12-28T05:25:53.748Z,98265.28
2023-12-28T05:28:20.822Z,98283.28
2023-12-28T05:30:47.708Z,98268.59
2023-12-28T05:33:14.645Z,98276.19
2023-12-28T05:35:41.451Z,98273.72
2023-12-28T05:38:08.162Z,98291.38
2023-12-28T05:40:34.898Z,98277.03
2023-12-28T05:43:01.658Z,98286.47
2023-12-28T05:45:28.562Z,98279.97
2023-12-28T05:47:55.586Z,98286.56
2023-12-28T05:50:22.534Z,98271.94
2023-12-28T05:52:49.618Z,98267.47
2023-12-28T05:55:16.813Z,98295.88
2023-12-28T05:57:43.655Z,98287.28
2023-12-28T06:00:11.360Z,98297.16
2023-12-28T06:02:38.262Z,98301.97
2023-12-28T06:05:07.049Z,98296.81
2023-12-28T06:07:34.541Z,98305.09
2023-12-28T06:10:01.546Z,98305.72
2023-12-28T06:12:28.671Z,98251.09
2023-12-28T06:14:55.921Z,98280.91
2023-12-28T06:17:22.923Z,98305.19
2023-12-28T06:19:51.471Z,98308.84
2023-12-28T06:22:18.280Z,98299.41
2023-12-28T06:24:45.148Z,98299.41
2023-12-28T06:27:11.987Z,98299.06
2023-12-28T06:29:38.938Z,98268.88
2023-12-28T06:32:06.298Z,98286.06
2023-12-28T06:34:33.165Z,98303.06
2023-12-28T06:36:59.970Z,98318.22
2023-12-28T06:39:27.037Z,98325.69
2023-12-28T06:41:54.247Z,98325.69
2023-12-28T06:44:24.253Z,98336.25
2023-12-28T06:46:52.198Z,98333.59
2023-12-28T06:49:19.072Z,98343.97
2023-12-28T06:51:47.454Z,98306.47
2023-12-28T06:54:16.354Z,98334.47
2023-12-28T06:56:43.857Z,98346.56
2023-12-28T06:59:13.631Z,98328.69
2023-12-28T07:01:41.462Z,98347.97
2023-12-28T07:04:09.104Z,98336.06
2023-12-28T07:06:35.994Z,98330.84
2023-12-28T07:09:03.511Z,98338.38
2023-12-28T07:11:30.411Z,98340.69
2023-12-28T07:13:57.534Z,98327.31
2023-12-28T07:16:24.567Z,98336.66
2023-12-28T07:18:52.697Z,98298.19
2023-12-28T07:21:19.745Z,98346.66
2023-12-28T07:23:50.535Z,98331.06
2023-12-28T07:26:17.508Z,98304.88
2023-12-28T07:28:46.179Z,98296.47
2023-12-28T07:31:23.296Z,98288.31
2023-12-28T07:33:50.408Z,98264.06
2023-12-28T07:36:17.436Z,98322.97
2023-12-28T07:38:45.044Z,98312.34
2023-12-28T07:41:14.099Z,98290.41
2023-12-28T07:43:41.989Z,98324.22
2023-12-28T07:46:08.990Z,98303.59
2023-12-28T07:48:36.169Z,98247.22
2023-12-28T07:51:07.185Z,98306.06
2023-12-28T07:53:34.929Z,98328.97
2023-12-28T07:56:03.656Z,98330.34
2023-12-28T07:58:32.276Z,98340.34
2023-12-28T08:00:59.155Z,98291.16
2023-12-28T08:03:26.166Z,98317.41
2023-12-28T08:05:53.237Z,98270.41
2023-12-28T08:08:29.985Z,98268.63
2023-12-28T08:11:01.748Z,98245.03
2023-12-28T08:13:28.558Z,98285.78
2023-12-28T08:16:03.030Z,98277.78
2023-12-28T08:18:29.988Z,98284.72
2023-12-28T08:24:29.053Z,98316.28
2023-12-28T08:26:59.477Z,98293.91
2023-12-28T08:29:26.836Z,98318.22
2023-12-28T08:31:53.890Z,98314.56
2023-12-28T08:34:20.689Z,98312.16
2023-12-28T08:36:47.471Z,98299.91
2023-12-28T08:39:14.502Z,98296.50
2023-12-28T08:41:41.190Z,98293.06
2023-12-28T08:44:07.854Z,98294.56
2023-12-28T08:46:34.635Z,98299.38
2023-12-28T08:49:01.548Z,98278.69
2023-12-28T08:51:28.311Z,98284.47
2023-12-28T08:53:55.140Z,98272.84
2023-12-28T08:56:23.374Z,98278.88
2023-12-28T08:58:55.467Z,98277.88
2023-12-28T09:01:24.138Z,98276.47
2023-12-28T09:03:52.083Z,98272.00
2023-12-28T09:06:20.362Z,98271.41
2023-12-28T09:08:51.924Z,98264.69
2023-12-28T09:11:19.650Z,98264.50
2023-12-28T09:13:47.029Z,98269.06
2023-12-28T09:16:15.895Z,98270.72
2023-12-28T09:18:43.856Z,98264.38
2023-12-28T09:21:11.599Z,98260.91
2023-12-28T09:23:39.449Z,98256.44
2023-12-28T09:26:07.468Z,98253.41
2023-12-28T09:28:35.448Z,98248.69
2023-12-28T09:31:03.357Z,98242.34
2023-12-28T09:33:30.419Z,98226.34
2023-12-28T09:35:57.631Z,98234.97
2023-12-28T09:38:24.925Z,98225.13
2023-12-28T09:40:55.901Z,98229.63
2023-12-28T09:43:27.650Z,98224.06
2023-12-28T09:45:58.340Z,98232.66
2023-12-28T09:48:25.596Z,98233.88
2023-12-28T09:50:56.894Z,98225.22
2023-12-28T09:53:27.084Z,98225.19
2023-12-28T09:55:54.560Z,98216.50
2023-12-28T09:58:22.896Z,98197.91
2023-12-28T10:00:51.739Z,98199.88
2023-12-28T10:03:19.324Z,98192.81
2023-12-28T10:05:47.382Z,98190.38
2023-12-28T10:08:15.170Z,98184.91
2023-12-28T10:10:42.746Z,98160.06
2023-12-28T10:18:33.849Z,98169.63
2023-12-28T10:21:00.825Z,98147.69
2023-12-28T10:23:27.712Z,98150.63
2023-12-28T10:25:59.713Z,98133.84
2023-12-28T10:28:28.126Z,98146.81
2023-12-28T12:24:04.193Z,97990.66
2023-12-28T12:26:34.624Z,97983.00
2023-12-28T12:29:01.341Z,97974.88
2023-12-28T12:31:29.084Z,97978.09
2023-12-28T12:33:56.520Z,97979.75
2023-12-28T12:36:23.774Z,97976.50
2023-12-28T12:38:50.869Z,97980.81
2023-12-28T12:41:17.942Z,97969.66
2023-12-28T12:43:44.761Z,97971.53
2023-12-28T12:46:11.775Z,97975.78
2023-12-28T12:48:39.677Z,97963.31
2023-12-28T12:51:06.743Z,97968.63
2023-12-28T12:53:38.261Z,97975.06
2023-12-28T12:56:06.160Z,97971.50
2023-12-28T12:58:36.585Z,97971.00
2023-12-28T13:01:04.674Z,97958.25
2023-12-28T13:03:31.872Z,97961.78
2023-12-28T13:05:58.962Z,97953.59
2023-12-28T13:08:26.571Z,97954.19
2023-12-28T13:10:53.333Z,97948.47
2023-12-28T13:13:20.356Z,97953.59
2023-12-28T13:15:47.109Z,97958.19
2023-12-28T13:18:14.080Z,97953.53
2023-12-28T13:20:40.962Z,97947.84
2023-12-28T13:23:08.228Z,97958.13
2023-12-28T13:25:35.565Z,97952.09
2023-12-28T13:28:02.435Z,97940.00
2023-12-28T13:30:32.051Z,97955.44
2023-12-28T13:32:59.176Z,97943.25
2023-12-28T13:35:26.251Z,97943.78
2023-12-28T13:37:53.057Z,97935.28
2023-12-28T13:40:20.254Z,97940.66
2023-12-28T13:42:47.906Z,97931.59
2023-12-28T13:45:14.895Z,97929.91
2023-12-28T13:47:41.779Z,97934.97
2023-12-28T13:50:09.009Z,97936.19
2023-12-28T13:52:35.935Z,97938.75
2023-12-28T13:55:02.971Z,97922.94
2023-12-28T13:57:29.938Z,97929.53
2023-12-28T14:00:01.446Z,97932.94
2023-12-28T14:02:28.588Z,97936.84
2023-12-28T14:04:57.378Z,97929.41
2023-12-28T14:07:25.665Z,97928.81
2023-12-28T14:09:53.203Z,97918.94
2023-12-28T14:12:20.103Z,97930.06
2023-12-28T14:14:46.969Z,97928.06
2023-12-28T14:17:13.746Z,97923.34
2023-12-28T14:19:42.785Z,97927.69
2023-12-28T14:22:09.969Z,97920.13
2023-12-28T14:24:36.956Z,97924.06
2023-12-28T14:27:05.053Z,97923.63
2023-12-28T14:29:32.322Z,97916.84
2023-12-28T14:31:59.275Z,97918.25
2023-12-28T14:34:27.895Z,97919.66
2023-12-28T14:36:55.028Z,97923.28
2023-12-28T14:39:21.859Z,97907.78
2023-12-28T14:41:48.820Z,97911.13
2023-12-28T14:44:15.619Z,97897.81
2023-12-28T14:46:42.327Z,97912.88
2023-12-28T14:49:09.313Z,97909.13
2023-12-28T14:51:36.298Z,97914.34
2023-12-28T14:54:03.302Z,97917.38
2023-12-28T14:56:36.645Z,97912.44
2023-12-28T14:59:11.652Z,97922.44
2023-12-28T15:01:38.439Z,97914.34
2023-12-28T15:04:05.532Z,97918.97
2023-12-28T15:06:33.056Z,97912.16
2023-12-28T15:08:59.794Z,97920.63
2023-12-28T15:11:38.026Z,97910.09
2023-12-28T15:14:12.892Z,97910.88
2023-12-28T15:16:40.021Z,97912.81
2023-12-28T15:19:07.820Z,97908.34
2023-12-28T15:21:35.808Z,97904.91
2023-12-28T15:24:03.084Z,97900.53
2023-12-28T15:26:29.745Z,97905.13
2023-12-28T15:28:56.933Z,97901.53
2023-12-28T15:31:24.152Z,97895.06
2023-12-28T15:33:51.305Z,97901.06
2023-12-28T15:36:18.228Z,97882.03
2023-12-28T15:38:45.199Z,97897.25
2023-12-28T15:41:11.988Z,97900.22
2023-12-28T15:43:38.744Z,97902.72
2023-12-28T15:46:05.508Z,97883.69
2023-12-28T15:48:32.399Z,97890.31
2023-12-28T15:50:59.332Z,97893.44
2023-12-28T15:53:26.200Z,97891.03
2023-12-28T15:56:04.140Z,97902.00
2023-12-28T15:58:36.449Z,97901.41
2023-12-28T16:01:03.822Z,97900.81
2023-12-28T16:03:30.827Z,97900.47
2023-12-28T16:05:57.862Z,97902.34
2023-12-28T16:08:24.609Z,97894.84
2023-12-28T16:10:51.264Z,97904.69
2023-12-28T16:13:18.287Z,97898.34
2023-12-28T16:15:45.379Z,97891.00
2023-12-28T16:18:12.758Z,97887.13
2023-12-28T16:20:39.921Z,97887.94
2023-12-28T16:23:07.014Z,97888.59
2023-12-28T16:25:34.490Z,97878.75
2023-12-28T16:28:01.748Z,97884.50
2023-12-28T16:30:29.763Z,97888.88
2023-12-28T16:32:56.510Z,97876.38
2023-12-28T16:35:23.447Z,97881.13
2023-12-28T16:37:50.116Z,97883.38
2023-12-28T16:40:17.123Z,97895.69
2023-12-28T16:42:44.515Z,97886.69
2023-12-28T16:45:11.279Z,97891.00
2023-12-28T16:47:38.085Z,97889.38
2023-12-28T16:50:05.953Z,97898.41
2023-12-28T16:52:32.693Z,97899.03
2023-12-28T16:54:59.385Z,97894.53
2023-12-28T16:57:26.775Z,97908.47
2023-12-28T17:00:02.833Z,97904.59
2023-12-28T17:02:37.239Z,97907.06
2023-12-28T17:05:06.238Z,97912.19
2023-12-28T17:07:33.230Z,97905.84
2023-12-28T17:10:05.162Z,97909.75
2023-12-28T17:12:42.736Z,97922.44
2023-12-28T17:15:14.098Z,97926.16
2023-12-28T17:17:46.017Z,97923.06
2023-12-28T17:20:14.054Z,97925.94
2023-12-28T17:22:43.735Z,97921.66
2023-12-28T17:25:38.491Z,97914.88
2023-12-28T17:28:06.524Z,97907.28
2023-12-28T17:30:36.897Z,97893.78
2023-12-28T17:33:04.396Z,97887.22
2023-12-28T17:35:31.367Z,97879.63
2023-12-28T17:37:59.306Z,97887.22
2023-12-28T17:40:26.522Z,97865.09
2023-12-28T17:43:01.731Z,97890.91
2023-12-28T17:45:57.655Z,97874.13
2023-12-28T17:48:27.009Z,97883.34
2023-12-28T17:50:57.833Z,97880.44
2023-12-28T17:53:25.390Z,97884.38
2023-12-28T17:55:52.307Z,97874.53
2023-12-28T17:58:19.469Z,97881.06
2023-12-28T18:00:46.574Z,97886.00
2023-12-28T18:03:13.578Z,97878.00
2023-12-28T18:05:40.290Z,97891.31
2023-12-28T18:08:07.386Z,97889.06
2023-12-28T18:10:34.313Z,97881.47
2023-12-28T18:13:01.165Z,97878.41
2023-12-28T18:15:27.930Z,97873.69
2023-12-28T18:17:54.810Z,97881.28
2023-12-28T18:20:21.588Z,97885.16
2023-12-28T18:22:48.217Z,97878.81
2023-12-28T18:25:15.250Z,97888.03
2023-12-28T18:27:41.974Z,97878.59
2023-12-28T18:30:09.341Z,97871.63
2023-12-28T18:32:37.248Z,97876.34
2023-12-28T18:35:05.043Z,97876.97
2023-12-28T18:37:31.780Z,97864.88
2023-12-28T18:39:58.621Z,97864.03
2023-12-28T18:42:25.370Z,97867.97
2023-12-28T18:44:52.061Z,97851.97
2023-12-28T18:47:18.930Z,97867.53
2023-12-28T18:49:45.661Z,97869.38
2023-12-28T18:52:12.454Z,97878.59
2023-12-28T18:54:39.337Z,97870.19
2023-12-28T18:57:06.158Z,97863.81
2023-12-28T18:59:32.830Z,97866.09
2023-12-28T19:01:59.790Z,97856.03
2023-12-28T19:04:26.715Z,97865.03
2023-12-28T19:06:53.634Z,97851.94
2023-12-28T19:09:20.414Z,97863.81
2023-12-28T19:11:47.363Z,97883.00
2023-12-28T19:14:14.653Z,97901.84
2023-12-28T19:16:41.447Z,97912.06
2023-12-28T19:19:09.115Z,97905.13
2023-12-28T19:21:35.916Z,97907.75
2023-12-28T19:24:02.785Z,97912.44
2023-12-28T19:26:29.730Z,97917.75
2023-12-28T19:28:56.604Z,97904.47
2023-12-28T19:31:25.905Z,97903.47
2023-12-28T19:33:53.790Z,97914.88
2023-12-28T19:36:20.679Z,97913.25
2023-12-28T19:38:47.552Z,97907.69
2023-12-28T19:41:14.498Z,97905.03
2023-12-28T19:43:42.366Z,97896.03
2023-12-28T19:46:09.155Z,97894.56
2023-12-28T19:48:36.050Z,97898.47
2023-12-28T19:51:03.080Z,97898.88
2023-12-28T19:53:30.016Z,97884.56
2023-12-28T19:55:56.853Z,97893.53
2023-12-28T19:58:23.619Z,97888.66
2023-12-28T20:00:50.730Z,97898.69
2023-12-28T20:03:17.659Z,97898.47
2023-12-28T20:05:44.498Z,97885.38
2023-12-28T20:08:11.467Z,97883.94
2023-12-28T20:10:38.180Z,97878.00
2023-12-28T20:13:05.119Z,97888.00
2023-12-28T20:15:32.060Z,97892.31
2023-12-28T20:18:00.975Z,97863.44
2023-12-28T20:20:28.148Z,97882.91
2023-12-28T20:22:55.104Z,97900.88
2023-12-28T20:25:21.861Z,97900.47
2023-12-28T20:27:48.666Z,97902.50
2023-12-28T20:30:18.678Z,97894.28
2023-12-28T20:32:45.524Z,97881.97
2023-12-28T20:35:12.413Z,97887.50
2023-12-28T20:37:39.855Z,97881.94
2023-12-28T20:40:08.865Z,97869.03
2023-12-28T20:42:35.862Z,97873.53
2023-12-28T20:45:03.165Z,97866.53
2023-12-28T20:47:29.940Z,97867.34
2023-12-28T20:49:56.839Z,97867.75
2023-12-28T20:52:24.194Z,97859.34
2023-12-28T20:54:51.017Z,97856.47
2023-12-28T20:57:17.769Z,97864.66
2023-12-28T20:59:46.598Z,97868.13
2023-12-28T21:02:13.549Z,97866.06
2023-12-28T21:04:40.423Z,97869.16
2023-12-28T21:07:07.886Z,97869.53
2023-12-28T21:09:34.759Z,97861.31
2023-12-28T21:12:03.076Z,97862.34
2023-12-28T21:14:32.109Z,97865.00
2023-12-28T21:17:00.058Z,97858.66
2023-12-28T21:19:27.087Z,97855.56
2023-12-28T21:21:54.200Z,97865.75
2023-12-28T21:24:21.007Z,97873.94
2023-12-28T21:26:48.063Z,97870.84
2023-12-28T21:29:17.721Z,97872.69
2023-12-28T21:31:45.182Z,97873.72
2023-12-28T21:34:12.626Z,97871.06
2023-12-28T21:36:43.664Z,97867.16
2023-12-28T21:39:10.574Z,97870.63
2023-12-28T21:41:37.395Z,97870.56
2023-12-28T21:44:04.193Z,97868.09
2023-12-28T21:46:31.024Z,97867.53
2023-12-28T21:48:58.191Z,97858.09
2023-12-28T21:51:25.264Z,97860.31
2023-12-28T21:53:51.938Z,97883.84
2023-12-28T21:56:19.603Z,97875.00
2023-12-28T21:58:46.557Z,97863.34
2023-12-28T22:01:13.309Z,97862.53
2023-12-28T22:03:40.346Z,97871.75
2023-12-28T22:06:08.057Z,97875.44
2023-12-28T22:08:35.268Z,97867.22
2023-12-28T22:11:02.203Z,97863.13
2023-12-28T22:13:29.006Z,97872.13
2023-12-28T22:16:00.332Z,97868.38
2023-12-28T22:18:28.299Z,97861.63
2023-12-28T22:20:55.467Z,97862.00
2023-12-28T22:23:22.483Z,97859.75
2023-12-28T22:25:49.916Z,97866.25
2023-12-28T22:28:16.825Z,97870.09
2023-12-28T22:30:43.652Z,97853.94
2023-12-28T22:33:10.723Z,97860.06
2023-12-28T22:35:37.660Z,97850.03
2023-12-28T22:38:04.768Z,97851.03
2023-12-28T22:40:32.561Z,97850.59
2023-12-28T22:42:59.467Z,97850.19
2023-12-28T22:45:26.237Z,97859.19
2023-12-28T22:47:53.039Z,97848.50
2023-12-28T22:50:19.919Z,97849.75
2023-12-28T22:52:46.707Z,97847.69
2023-12-28T22:55:13.620Z,97864.78
2023-12-28T22:57:40.401Z,97845.34
2023-12-28T23:00:18.388Z,97850.47
2023-12-28T23:02:45.672Z,97859.50
2023-12-28T23:05:14.343Z,97848.84
2023-12-28T23:07:41.893Z,97859.06
2023-12-28T23:10:10.279Z,97838.59
2023-12-28T23:12:37.326Z,97852.09
2023-12-28T23:15:05.309Z,97848.00
2023-12-28T23:17:32.225Z,97843.72
2023-12-28T23:19:59.183Z,97847.00
2023-12-28T23:22:25.914Z,97826.75
2023-12-28T23:24:52.788Z,97837.16
2023-12-28T23:27:19.479Z,97831.41
2023-12-28T23:29:46.178Z,97839.19
2023-12-28T23:32:13.205Z,97845.53
2023-12-28T23:34:40.333Z,97835.31
2023-12-28T23:37:07.215Z,97819.16
2023-12-28T23:39:34.367Z,97824.47
2023-12-28T23:42:01.195Z,97825.66
2023-12-28T23:44:27.940Z,97822.81
2023-12-28T23:46:54.655Z,97817.31
2023-12-28T23:49:21.412Z,97809.56
2023-12-28T23:51:48.530Z,97810.19
2023-12-28T23:54:15.590Z,97817.56
2023-12-28T23:56:42.262Z,97825.34
2023-12-28T23:59:08.984Z,97825.97
